createdAt,value
2022-10-20T00:01:27.078Z,101805.56
2022-10-20T00:03:55.487Z,101802.09
2022-10-20T00:06:28.954Z,101795.09
2022-10-20T00:08:58.764Z,101788.22
2022-10-20T00:11:27.370Z,101786.47
2022-10-20T00:13:56.284Z,101788.19
2022-10-20T00:16:25.189Z,101782.19
2022-10-20T00:18:53.488Z,101779.50
2022-10-20T00:21:23.728Z,101791.66
2022-10-20T00:23:51.887Z,101789.00
2022-10-20T00:26:24.616Z,101783.03
2022-10-20T00:28:52.737Z,101772.66
2022-10-20T00:31:22.405Z,101772.72
2022-10-20T00:33:49.942Z,101766.59
2022-10-20T00:36:19.582Z,101755.38
2022-10-20T00:38:47.738Z,101764.06
2022-10-20T00:41:17.211Z,101762.25
2022-10-20T00:43:59.895Z,101753.56
2022-10-20T00:46:43.889Z,101754.44
2022-10-20T00:49:22.984Z,101758.66
2022-10-20T00:51:52.616Z,101751.63
2022-10-20T00:54:26.268Z,101763.66
2022-10-20T00:56:56.589Z,101752.38
2022-10-20T00:59:28.902Z,101734.13
2022-10-20T01:01:57.877Z,101731.56
2022-10-20T01:04:28.472Z,101730.66
2022-10-20T01:06:56.661Z,101732.44
2022-10-20T01:09:24.565Z,101738.44
2022-10-20T01:12:19.275Z,101733.19
2022-10-20T01:15:03.681Z,101735.81
2022-10-20T01:17:49.230Z,101719.31
2022-10-20T01:20:53.120Z,101720.97
2022-10-20T01:23:42.407Z,101704.53
2022-10-20T01:26:09.778Z,101707.13
2022-10-20T01:28:54.232Z,101693.38
2022-10-20T01:31:40.464Z,101680.41
2022-10-20T01:34:17.485Z,101683.78
2022-10-20T01:37:03.917Z,101679.44
2022-10-20T01:39:45.290Z,101679.44
2022-10-20T01:42:17.375Z,101681.19
2022-10-20T01:44:45.861Z,101685.47
2022-10-20T01:47:15.337Z,101687.19
2022-10-20T01:49:44.749Z,101680.19
2022-10-20T01:52:13.355Z,101668.00
2022-10-20T01:54:41.143Z,101665.34
2022-10-20T01:57:28.762Z,101654.16
2022-10-20T02:00:10.748Z,101645.53
2022-10-20T02:02:46.941Z,101643.81
2022-10-20T02:05:46.376Z,101642.97
2022-10-20T02:08:29.993Z,101632.59
2022-10-20T02:11:02.646Z,101638.72
2022-10-20T02:13:31.682Z,101638.66
2022-10-20T02:16:02.843Z,101642.97
2022-10-20T02:18:37.872Z,101647.28
2022-10-20T02:21:07.106Z,101640.41
2022-10-20T02:23:38.702Z,101629.19
2022-10-20T02:26:14.243Z,101621.44
2022-10-20T02:28:46.759Z,101619.78
2022-10-20T02:31:14.475Z,101606.84
2022-10-20T02:33:44.658Z,101594.69
2022-10-20T02:36:17.426Z,101598.25
2022-10-20T02:38:45.430Z,101591.28
2022-10-20T02:41:13.044Z,101592.13
2022-10-20T02:43:40.640Z,101593.97
2022-10-20T02:46:08.221Z,101580.13
2022-10-20T02:48:35.825Z,101576.69
2022-10-20T02:51:03.295Z,101580.28
2022-10-20T02:53:30.746Z,101557.75
2022-10-20T02:55:58.852Z,101554.34
2022-10-20T02:58:26.564Z,101549.25
2022-10-20T03:00:54.047Z,101556.19
2022-10-20T03:03:21.565Z,101549.31
2022-10-20T03:05:48.999Z,101543.28
2022-10-20T03:08:16.559Z,101528.66
2022-10-20T03:10:44.349Z,101527.78
2022-10-20T03:13:12.319Z,101525.28
2022-10-20T03:15:39.815Z,101527.91
2022-10-20T03:18:07.306Z,101528.78
2022-10-20T03:20:35.486Z,101525.34
2022-10-20T03:23:02.953Z,101531.47
2022-10-20T03:25:32.292Z,101536.72
2022-10-20T03:28:00.065Z,101520.31
2022-10-20T03:30:27.883Z,101502.22
2022-10-20T03:32:56.940Z,101496.25
2022-10-20T03:35:24.426Z,101499.75
2022-10-20T03:37:51.872Z,101501.53
2022-10-20T03:40:19.655Z,101498.13
2022-10-20T03:42:47.180Z,101484.28
2022-10-20T03:45:17.744Z,101487.84
2022-10-20T03:47:46.182Z,101491.34
2022-10-20T03:50:13.654Z,101468.03
2022-10-20T03:52:41.133Z,101467.25
2022-10-20T03:55:09.122Z,101456.88
2022-10-20T03:57:36.802Z,101450.91
2022-10-20T04:00:04.858Z,101448.31
2022-10-20T04:02:39.086Z,101439.66
2022-10-20T04:05:07.574Z,101453.53
2022-10-20T04:07:35.293Z,101471.66
2022-10-20T04:10:02.826Z,101468.19
2022-10-20T04:12:30.621Z,101462.16
2022-10-20T04:14:58.091Z,101443.13
2022-10-20T04:17:25.734Z,101440.53
2022-10-20T04:19:53.220Z,101436.22
2022-10-20T04:22:20.685Z,101419.75
2022-10-20T04:24:48.203Z,101434.56
2022-10-20T04:27:15.708Z,101432.88
2022-10-20T04:29:43.230Z,101424.16
2022-10-20T04:32:10.673Z,101446.78
2022-10-20T04:34:38.114Z,101461.56
2022-10-20T04:37:05.686Z,101441.69
2022-10-20T04:39:33.148Z,101435.69
2022-10-20T04:42:00.869Z,101429.59
2022-10-20T04:44:28.337Z,101432.28
2022-10-20T04:46:56.088Z,101415.84
2022-10-20T04:49:23.616Z,101402.00
2022-10-20T04:51:51.162Z,101392.50
2022-10-20T04:54:18.678Z,101393.34
2022-10-20T04:56:46.143Z,101402.06
2022-10-20T04:59:13.938Z,101414.19
2022-10-20T05:01:41.770Z,101412.50
2022-10-20T05:04:10.226Z,101408.16
2022-10-20T05:06:38.107Z,101388.25
2022-10-20T05:09:08.107Z,101380.47
2022-10-20T05:11:38.035Z,101374.41
2022-10-20T05:14:05.697Z,101360.53
2022-10-20T05:16:33.149Z,101374.44
2022-10-20T05:19:01.138Z,101384.78
2022-10-20T05:21:32.046Z,101370.03
2022-10-20T05:24:02.161Z,101371.78
2022-10-20T05:26:34.398Z,101372.69
2022-10-20T05:29:03.719Z,101351.88
2022-10-20T05:31:31.193Z,101348.34
2022-10-20T05:33:59.070Z,101350.13
2022-10-20T05:36:28.046Z,101333.59
2022-10-20T05:38:56.576Z,101337.97
2022-10-20T05:41:27.846Z,101323.22
2022-10-20T05:43:58.199Z,101332.81
2022-10-20T05:46:28.106Z,101325.81
2022-10-20T05:48:57.637Z,101332.75
2022-10-20T05:51:27.919Z,101323.25
2022-10-20T05:54:00.150Z,101305.03
2022-10-20T05:56:28.947Z,101296.34
2022-10-20T05:58:57.262Z,101311.94
2022-10-20T06:01:27.615Z,101313.69
2022-10-20T06:03:59.965Z,101310.22
2022-10-20T06:06:30.600Z,101313.69
2022-10-20T06:09:00.271Z,101318.91
2022-10-20T06:11:28.526Z,101330.19
2022-10-20T06:13:57.550Z,101324.09
2022-10-20T06:16:27.017Z,101334.50
2022-10-20T06:18:55.173Z,101339.72
2022-10-20T06:21:28.403Z,101341.44
2022-10-20T06:23:56.016Z,101337.94
2022-10-20T06:26:26.086Z,101328.44
2022-10-20T06:29:03.666Z,101327.53
2022-10-20T06:31:38.917Z,101331.84
2022-10-20T06:34:08.771Z,101322.34
2022-10-20T06:36:38.703Z,101315.41
2022-10-20T06:39:08.535Z,101311.06
2022-10-20T06:41:36.452Z,101314.53
2022-10-20T06:44:04.094Z,101306.75
2022-10-20T06:46:33.699Z,101299.84
2022-10-20T06:49:03.611Z,101308.50
2022-10-20T06:51:31.381Z,101315.44
2022-10-20T06:54:00.406Z,101317.22
2022-10-20T06:56:30.436Z,101331.97
2022-10-20T06:58:58.829Z,101332.88
2022-10-20T07:01:27.374Z,101346.72
2022-10-20T07:03:58.461Z,101340.63
2022-10-20T07:06:32.071Z,101327.66
2022-10-20T07:09:00.288Z,101305.16
2022-10-20T07:11:30.024Z,101294.78
2022-10-20T07:13:59.650Z,101303.44
2022-10-20T07:16:29.151Z,101296.53
2022-10-20T07:18:57.234Z,101298.25
2022-10-20T07:21:32.333Z,101300.88
2022-10-20T07:24:05.035Z,101287.03
2022-10-20T07:26:35.906Z,101300.03
2022-10-20T07:29:04.150Z,101297.44
2022-10-20T07:31:37.472Z,101298.34
2022-10-20T07:34:23.339Z,101287.06
2022-10-20T07:36:52.855Z,101296.63
2022-10-20T07:39:20.483Z,101295.78
2022-10-20T07:41:48.400Z,101297.53
2022-10-20T07:44:16.734Z,101300.16
2022-10-20T07:46:44.449Z,101293.22
2022-10-20T07:51:59.869Z,101235.09
2022-10-20T07:54:27.311Z,101310.56
2022-10-20T07:56:54.866Z,101291.50
2022-10-20T07:59:22.595Z,101288.06
2022-10-20T08:01:50.724Z,101271.56
2022-10-20T08:04:19.399Z,101282.00
2022-10-20T08:06:47.205Z,101282.88
2022-10-20T08:09:14.675Z,101288.09
2022-10-20T08:11:42.179Z,101296.75
2022-10-20T08:14:09.642Z,101279.44
2022-10-20T08:16:37.202Z,101268.19
2022-10-20T08:21:50.036Z,101260.34
2022-10-20T08:24:17.558Z,101258.66
2022-10-20T08:26:45.491Z,101256.88
2022-10-20T08:29:13.351Z,101257.78
2022-10-20T08:31:40.903Z,101258.63
2022-10-20T08:34:09.074Z,101265.53
2022-10-20T08:36:37.193Z,101249.88
2022-10-20T08:39:06.296Z,101261.19
2022-10-20T08:42:07.560Z,101253.41
2022-10-20T08:44:31.566Z,101255.13
2022-10-20T08:47:04.688Z,101251.66
2022-10-20T08:49:36.009Z,101251.63
2022-10-20T08:52:03.766Z,101259.44
2022-10-20T08:54:34.859Z,101253.34
2022-10-20T08:57:02.651Z,101242.88
2022-10-20T08:59:39.216Z,101237.66
2022-10-20T09:02:17.424Z,101231.53
2022-10-20T09:04:56.466Z,101216.75
2022-10-20T09:07:34.219Z,101234.97
2022-10-20T09:10:16.986Z,101223.63
2022-10-20T09:12:46.123Z,101220.16
2022-10-20T09:15:15.669Z,101219.31
2022-10-20T09:17:47.358Z,101218.41
2022-10-20T09:20:37.238Z,101218.41
2022-10-20T09:23:16.565Z,101217.53
2022-10-20T09:25:54.123Z,101215.78
2022-10-20T09:28:31.222Z,101217.53
2022-10-20T09:31:01.671Z,101207.97
2022-10-20T09:33:35.471Z,101201.06
2022-10-20T09:36:18.985Z,101200.19
2022-10-20T09:38:50.424Z,101199.28
2022-10-20T09:41:35.877Z,101207.91
2022-10-20T09:44:09.196Z,101206.19
2022-10-20T09:46:55.920Z,101195.69
2022-10-20T09:49:39.259Z,101183.47
2022-10-20T09:52:20.077Z,101190.34
2022-10-20T09:54:50.088Z,101192.03
2022-10-20T09:57:20.716Z,101195.41
2022-10-20T09:59:52.029Z,101210.13
2022-10-20T10:02:22.272Z,101197.81
2022-10-20T10:04:52.760Z,101194.28
2022-10-20T10:07:23.069Z,101186.44
2022-10-20T10:10:08.864Z,101180.41
2022-10-20T10:12:36.959Z,101184.66
2022-10-20T10:15:08.728Z,101188.94
2022-10-20T10:17:40.782Z,101191.50
2022-10-20T10:20:30.463Z,101189.69
2022-10-20T10:23:21.035Z,101187.09
2022-10-20T10:25:49.778Z,101186.13
2022-10-20T10:28:52.637Z,101186.94
2022-10-20T10:31:24.449Z,101176.47
2022-10-20T10:33:56.787Z,101183.44
2022-10-20T10:36:37.646Z,101166.94
2022-10-20T10:39:08.450Z,101153.00
2022-10-20T10:42:01.339Z,101163.47
2022-10-20T10:44:50.416Z,101146.00
2022-10-20T10:47:26.510Z,101145.16
2022-10-20T10:50:23.439Z,101153.00
2022-10-20T10:52:50.849Z,101153.84
2022-10-20T10:55:47.212Z,101132.06
2022-10-20T10:58:33.774Z,101153.91
2022-10-20T11:01:07.224Z,101128.59
2022-10-20T11:04:06.063Z,101123.34
2022-10-20T11:06:39.068Z,101103.38
2022-10-20T11:09:37.661Z,101097.34
2022-10-20T11:12:43.401Z,101087.88
2022-10-20T11:15:32.157Z,101094.78
2022-10-20T11:18:28.732Z,101108.72
2022-10-20T11:21:44.155Z,101107.81
2022-10-20T11:24:39.656Z,101106.94
2022-10-20T11:27:18.927Z,101113.06
2022-10-20T11:30:04.531Z,101127.94
2022-10-20T11:32:45.811Z,101127.03
2022-10-20T11:35:56.620Z,101116.59
2022-10-20T11:38:32.996Z,101113.13
2022-10-20T11:41:05.722Z,101114.06
2022-10-20T11:44:04.975Z,101101.00
2022-10-20T11:46:38.380Z,101096.75
2022-10-20T11:49:06.496Z,101092.41
2022-10-20T11:51:34.072Z,101106.31
2022-10-20T11:54:01.577Z,101108.03
2022-10-20T11:56:35.252Z,101098.47
2022-10-20T11:59:24.724Z,101093.25
2022-10-20T12:02:29.556Z,101094.97
2022-10-20T12:05:15.758Z,101090.59
2022-10-20T12:08:28.114Z,101092.34
2022-10-20T12:11:00.988Z,101092.28
2022-10-20T12:13:50.346Z,101087.91
2022-10-20T12:16:59.521Z,101081.75
2022-10-20T12:19:35.952Z,101085.19
2022-10-20T12:22:05.891Z,101092.09
2022-10-20T12:24:53.187Z,101085.06
2022-10-20T12:27:23.096Z,101091.97
2022-10-20T12:29:59.268Z,101090.22
2022-10-20T12:32:39.344Z,101098.91
2022-10-20T12:35:13.317Z,101093.69
2022-10-20T12:37:44.746Z,101090.25
2022-10-20T12:40:15.240Z,101084.09
2022-10-20T12:42:52.984Z,101088.44
2022-10-20T12:45:20.615Z,101094.59
2022-10-20T12:48:00.057Z,101087.63
2022-10-20T12:50:45.689Z,101083.25
2022-10-20T12:53:22.385Z,101084.91
2022-10-20T12:56:04.635Z,101074.44
2022-10-20T12:58:40.341Z,101078.72
2022-10-20T13:01:11.054Z,101072.41
2022-10-20T13:03:44.243Z,101081.84
2022-10-20T13:06:35.021Z,101078.25
2022-10-20T13:09:06.029Z,101086.03
2022-10-20T13:11:40.630Z,101084.16
2022-10-20T13:14:13.945Z,101077.97
2022-10-20T13:17:07.027Z,101084.09
2022-10-20T13:19:52.732Z,101080.47
2022-10-20T13:22:42.883Z,101078.78
2022-10-20T13:25:37.936Z,101083.84
2022-10-20T13:28:08.355Z,101082.06
2022-10-20T13:30:37.540Z,101076.75
2022-10-20T13:33:34.277Z,101079.44
2022-10-20T13:36:21.598Z,101071.50
2022-10-20T13:38:58.990Z,101065.31
2022-10-20T13:41:26.429Z,101058.31
2022-10-20T13:44:11.712Z,101061.72
2022-10-20T13:46:55.114Z,101053.84
2022-10-20T13:49:40.253Z,101059.06
2022-10-20T13:52:14.822Z,101054.63
2022-10-20T13:54:47.005Z,101054.66
2022-10-20T13:57:40.654Z,101051.94
2022-10-20T14:00:17.810Z,101053.59
2022-10-20T14:02:55.615Z,101049.16
2022-10-20T14:05:24.435Z,101050.88
2022-10-20T14:07:52.269Z,101051.72
2022-10-20T14:10:32.674Z,101031.44
2022-10-20T14:13:02.578Z,101032.13
2022-10-20T14:15:39.224Z,101032.59
2022-10-20T14:18:31.806Z,101035.25
2022-10-20T14:21:04.291Z,101029.75
2022-10-20T14:23:38.515Z,101035.06
2022-10-20T14:26:11.859Z,101024.44
2022-10-20T14:28:40.503Z,101033.94
2022-10-20T14:31:11.190Z,101026.09
2022-10-20T14:33:44.490Z,101024.34
2022-10-20T14:39:00.146Z,101015.53
2022-10-20T14:41:33.903Z,101021.50
2022-10-20T14:44:17.441Z,101016.19
2022-10-20T14:46:57.533Z,101014.22
2022-10-20T14:49:31.514Z,101022.00
2022-10-20T14:52:02.843Z,101013.13
2022-10-20T14:54:39.418Z,101002.56
2022-10-20T14:57:09.887Z,101013.00
2022-10-20T14:59:49.543Z,101006.00
2022-10-20T15:02:33.403Z,100999.13
2022-10-20T15:05:24.223Z,101005.25
2022-10-20T15:07:52.217Z,101012.28
2022-10-20T15:10:23.500Z,101001.81
2022-10-20T15:12:53.498Z,101007.94
2022-10-20T15:15:25.420Z,101011.53
2022-10-20T15:18:08.951Z,101011.59
2022-10-20T15:20:42.542Z,101016.94
2022-10-20T15:23:23.666Z,101012.69
2022-10-20T15:26:01.477Z,101017.13
2022-10-20T15:28:38.841Z,101009.41
2022-10-20T15:31:17.174Z,101006.63
2022-10-20T15:33:44.877Z,101001.41
2022-10-20T15:36:22.294Z,101010.09
2022-10-20T15:38:51.105Z,101019.72
2022-10-20T15:41:27.006Z,101008.44
2022-10-20T15:43:54.599Z,101008.50
2022-10-20T15:46:22.601Z,101006.63
2022-10-20T15:48:50.277Z,101004.81
2022-10-20T15:51:25.144Z,101010.91
2022-10-20T15:53:53.019Z,100978.94
2022-10-20T15:56:21.479Z,100997.75
2022-10-20T15:58:50.284Z,100992.50
2022-10-20T16:01:19.010Z,100997.81
2022-10-20T16:03:47.978Z,100996.16
2022-10-20T16:06:18.138Z,100998.91
2022-10-20T16:08:47.924Z,100989.47
2022-10-20T16:11:17.215Z,100992.16
2022-10-20T16:13:45.153Z,100985.31
2022-10-20T16:16:19.361Z,100999.38
2022-10-20T16:18:47.302Z,100999.53
2022-10-20T16:21:14.803Z,100997.00
2022-10-20T16:23:44.916Z,100987.63
2022-10-20T16:26:15.065Z,101006.78
2022-10-20T16:28:43.225Z,101001.56
2022-10-20T16:31:14.213Z,101006.81
2022-10-20T16:33:42.198Z,101007.72
2022-10-20T16:36:12.143Z,100998.31
2022-10-20T16:38:40.483Z,101007.03
2022-10-20T16:41:14.508Z,101002.75
2022-10-20T16:43:44.918Z,100997.56
2022-10-20T16:46:14.605Z,100992.38
2022-10-20T16:48:44.007Z,100992.47
2022-10-20T16:51:16.105Z,100984.72
2022-10-20T16:53:43.717Z,100985.63
2022-10-20T16:56:14.074Z,100982.09
2022-10-20T16:58:44.391Z,100990.00
2022-10-20T17:01:14.164Z,100994.41
2022-10-20T17:03:46.728Z,100993.53
2022-10-20T17:06:15.775Z,100992.75
2022-10-20T17:08:43.543Z,100980.56
2022-10-20T17:11:24.738Z,100991.91
2022-10-20T17:13:52.841Z,100984.13
2022-10-20T17:16:29.413Z,100999.88
2022-10-20T17:19:01.622Z,101000.75
2022-10-20T17:21:29.930Z,100993.00
2022-10-20T17:23:57.978Z,100996.56
2022-10-20T17:26:30.186Z,100986.13
2022-10-20T17:28:58.869Z,100988.81
2022-10-20T17:31:26.346Z,100988.00
2022-10-20T17:33:55.588Z,100984.53
2022-10-20T17:36:26.265Z,100988.00
2022-10-20T17:38:59.944Z,100988.84
2022-10-20T17:41:28.341Z,100992.38
2022-10-20T17:43:55.823Z,100984.56
2022-10-20T17:46:23.269Z,100973.38
2022-10-20T17:48:50.755Z,100975.06
2022-10-20T17:51:20.619Z,100975.22
2022-10-20T17:53:50.311Z,100977.72
2022-10-20T17:56:21.081Z,100977.72
2022-10-20T17:58:50.203Z,100977.78
2022-10-20T18:01:29.747Z,100975.19
2022-10-20T18:04:02.997Z,100970.81
2022-10-20T18:06:34.287Z,100962.09
2022-10-20T18:09:11.345Z,100956.00
2022-10-20T18:11:40.900Z,100967.38
2022-10-20T18:14:08.522Z,100962.97
2022-10-20T18:16:38.007Z,100963.88
2022-10-20T18:19:06.033Z,100968.25
2022-10-20T18:21:33.646Z,100968.28
2022-10-20T18:24:06.683Z,100969.22
2022-10-20T18:26:36.625Z,100974.44
2022-10-20T18:29:06.429Z,100961.41
2022-10-20T18:31:35.794Z,100958.81
2022-10-20T18:34:07.131Z,100955.41
2022-10-20T18:36:39.122Z,100950.09
2022-10-20T18:39:10.740Z,100946.69
2022-10-20T18:41:40.484Z,100953.66
2022-10-20T18:44:13.002Z,100948.50
2022-10-20T18:46:41.468Z,100958.94
2022-10-20T18:49:10.207Z,100967.66
2022-10-20T18:51:38.117Z,100953.72
2022-10-20T18:54:08.406Z,100957.19
2022-10-20T18:56:36.764Z,100958.06
2022-10-20T18:59:08.153Z,100961.50
2022-10-20T19:01:38.353Z,100963.25
2022-10-20T19:04:06.893Z,100971.03
2022-10-20T19:06:38.532Z,100958.88
2022-10-20T19:09:11.755Z,100951.94
2022-10-20T19:11:40.500Z,100942.44
2022-10-20T19:14:10.118Z,100947.66
2022-10-20T19:16:38.027Z,100943.28
2022-10-20T19:19:07.270Z,100938.03
2022-10-20T19:21:35.944Z,100930.16
2022-10-20T19:24:07.504Z,100923.19
2022-10-20T19:26:39.705Z,100919.69
2022-10-20T19:29:08.837Z,100932.72
2022-10-20T19:31:49.241Z,100933.66
2022-10-20T19:34:20.945Z,100941.53
2022-10-20T19:36:48.918Z,100924.16
2022-10-20T19:41:58.610Z,100912.91
2022-10-20T19:44:26.133Z,100912.09
2022-10-20T19:46:53.666Z,100911.25
2022-10-20T19:49:22.470Z,100898.16
2022-10-20T19:51:50.409Z,100902.50
2022-10-20T19:54:18.057Z,100895.56
2022-10-20T19:56:45.546Z,100873.84
2022-10-20T19:59:13.271Z,100877.38
2022-10-20T20:01:40.917Z,100873.91
2022-10-20T20:04:08.619Z,100873.91
2022-10-20T20:06:36.433Z,100871.31
2022-10-20T20:09:08.271Z,100874.84
2022-10-20T20:11:37.645Z,100866.16
2022-10-20T20:14:09.188Z,100856.66
2022-10-20T20:16:37.767Z,100874.91
2022-10-20T20:19:05.682Z,100876.63
2022-10-20T20:21:33.419Z,100877.56
2022-10-20T20:24:02.660Z,100866.22
2022-10-20T20:26:32.446Z,100867.16
2022-10-20T20:29:00.368Z,100870.66
2022-10-20T20:31:28.683Z,100873.34
2022-10-20T20:33:57.619Z,100863.81
2022-10-20T20:36:27.642Z,100872.56
2022-10-20T20:38:59.966Z,100872.59
2022-10-20T20:41:30.270Z,100882.25
2022-10-20T20:43:58.317Z,100885.75
2022-10-20T20:46:30.726Z,100876.25
2022-10-20T20:48:59.142Z,100888.41
2022-10-20T20:51:28.792Z,100881.47
2022-10-20T20:53:56.873Z,100881.53
2022-10-20T20:56:26.837Z,100872.84
2022-10-20T20:58:55.669Z,100875.44
2022-10-20T21:01:28.704Z,100886.78
2022-10-20T21:03:58.142Z,100883.34
2022-10-20T21:06:33.768Z,100885.97
2022-10-20T21:09:11.125Z,100890.31
2022-10-20T21:11:38.965Z,100883.38
2022-10-20T21:14:06.471Z,100878.19
2022-10-20T21:16:35.805Z,100888.66
2022-10-20T21:19:07.892Z,100888.66
2022-10-20T21:21:37.928Z,100893.91
2022-10-20T21:24:07.205Z,100884.38
2022-10-20T21:26:34.794Z,100887.00
2022-10-20T21:29:02.354Z,100890.53
2022-10-20T21:31:31.176Z,100885.34
2022-10-20T21:34:01.757Z,100869.81
2022-10-20T21:36:31.486Z,100892.38
2022-10-20T21:39:03.150Z,100893.25
2022-10-20T21:41:33.931Z,100896.72
2022-10-20T21:44:03.356Z,100902.81
2022-10-20T21:46:35.322Z,100899.34
2022-10-20T21:49:08.405Z,100895.91
2022-10-20T21:51:38.331Z,100880.34
2022-10-20T21:54:09.009Z,100876.00
2022-10-20T21:56:37.353Z,100887.31
2022-10-20T21:59:06.447Z,100886.44
2022-10-20T22:01:34.533Z,100885.56
2022-10-20T22:04:02.332Z,100886.47
2022-10-20T22:06:29.814Z,100879.53
2022-10-20T22:08:59.689Z,100883.94
2022-10-20T22:11:33.034Z,100883.94
2022-10-20T22:14:00.629Z,100887.41
2022-10-20T22:16:32.494Z,100889.16
2022-10-20T22:19:05.911Z,100894.38
2022-10-20T22:21:38.004Z,100895.25
2022-10-20T22:24:06.127Z,100884.81
2022-10-20T22:26:34.429Z,100886.63
2022-10-20T22:29:03.098Z,100877.00
2022-10-20T22:31:30.534Z,100879.69
2022-10-20T22:33:59.781Z,100890.94
2022-10-20T22:36:28.979Z,100878.75
2022-10-20T22:38:56.765Z,100883.13
2022-10-20T22:41:24.469Z,100881.38
2022-10-20T22:43:51.965Z,100882.22
2022-10-20T22:46:19.866Z,100883.97
2022-10-20T22:48:47.543Z,100875.25
2022-10-20T22:51:15.494Z,100875.25
2022-10-20T22:53:44.051Z,100876.97
2022-10-20T22:56:16.462Z,100868.28
2022-10-20T22:58:44.485Z,100867.41
2022-10-20T23:01:18.357Z,100868.28
2022-10-20T23:03:46.319Z,100867.41
2022-10-20T23:06:20.469Z,100865.66
2022-10-20T23:08:50.415Z,100856.97
2022-10-20T23:11:18.563Z,100855.19
2022-10-20T23:13:47.086Z,100854.31
2022-10-20T23:16:15.278Z,100849.09
2022-10-20T23:18:43.044Z,100842.06
2022-10-20T23:21:10.782Z,100835.97
2022-10-20T23:23:39.013Z,100838.56
2022-10-20T23:26:08.496Z,100833.34
2022-10-20T23:28:37.129Z,100835.09
2022-10-20T23:31:13.454Z,100835.09
2022-10-20T23:33:42.402Z,100842.06
2022-10-20T23:36:10.442Z,100835.13
2022-10-20T23:38:37.951Z,100840.41
2022-10-20T23:41:05.972Z,100834.31
2022-10-20T23:43:34.158Z,100826.53
2022-10-20T23:46:02.011Z,100814.34
2022-10-20T23:48:29.629Z,100811.69
2022-10-20T23:50:57.347Z,100812.59
2022-10-20T23:53:25.972Z,100818.63
2022-10-20T23:55:53.683Z,100819.53
2022-10-20T23:58:22.683Z,100824.75
